Time,TemperatureF,DewpointF,PressureIn,WindDirection,WindDirectionDegrees,WindSpeedMPH,WindSpeedGustMPH,Humidity,HourlyPrecipIn,Conditions,Clouds,dailyrainin,SoftwareType,DateUTC
2013-02-03 00:00:00,70.0,62.0,30.13,NE,40,11.0,13.0,76,-99.99,,,-99.99,,2013-02-03 05:00:00,
2013-02-03 00:22:00,70.0,62.0,30.13,NE,40,11.0,13.0,76,-99.99,,,-99.99,,2013-02-03 05:22:00,
2013-02-03 00:31:00,70.0,62.0,30.13,NE,40,11.0,13.0,76,-99.99,,,-99.99,,2013-02-03 05:31:00,
2013-02-03 00:41:00,70.0,62.0,30.13,NE,40,11.0,13.0,76,-99.99,,,-99.99,,2013-02-03 05:41:00,
2013-02-03 00:52:00,70.0,62.0,30.13,NE,40,11.0,13.0,76,-99.99,,,-99.99,,2013-02-03 05:52:00,
2013-02-03 01:00:00,70.0,62.0,30.10,NE,50,11.0,13.0,76,-99.99,,,-99.99,,2013-02-03 06:00:00,
2013-02-03 01:21:00,70.0,62.0,30.10,NE,50,11.0,13.0,76,-99.99,,,-99.99,,2013-02-03 06:21:00,
2013-02-03 01:31:00,70.0,62.0,30.10,NE,50,11.0,13.0,76,-99.99,,,-99.99,,2013-02-03 06:31:00,
2013-02-03 01:41:00,70.0,62.0,30.10,NE,50,11.0,13.0,76,-99.99,,,-99.99,,2013-02-03 06:41:00,
2013-02-03 01:52:00,70.0,62.0,30.10,NE,50,11.0,13.0,76,-99.99,,,-99.99,,2013-02-03 06:52:00,
2013-02-03 02:00:00,69.0,62.0,30.09,NNE,30,11.0,11.0,78,-99.99,,,-99.99,,2013-02-03 07:00:00,
2013-02-03 02:21:00,69.0,62.0,30.09,NNE,30,11.0,11.0,78,-99.99,,,-99.99,,2013-02-03 07:21:00,
2013-02-03 02:31:00,69.0,62.0,30.09,NNE,30,11.0,11.0,78,-99.99,,,-99.99,,2013-02-03 07:31:00,
2013-02-03 02:41:00,69.0,62.0,30.09,NNE,30,11.0,11.0,78,-99.99,,,-99.99,,2013-02-03 07:41:00,
2013-02-03 02:52:00,69.0,62.0,30.09,NNE,30,11.0,11.0,78,-99.99,,,-99.99,,2013-02-03 07:52:00,
2013-02-03 03:00:00,69.0,62.0,30.08,NNE,30,10.0,11.0,79,-99.99,,,-99.99,,2013-02-03 08:00:00,
2013-02-03 03:22:00,69.0,62.0,30.08,NNE,30,10.0,11.0,79,-99.99,,,-99.99,,2013-02-03 08:22:00,
2013-02-03 03:31:00,69.0,62.0,30.08,NNE,30,10.0,11.0,79,-99.99,,,-99.99,,2013-02-03 08:31:00,
2013-02-03 03:41:00,69.0,62.0,30.08,NNE,30,10.0,11.0,79,-99.99,,,-99.99,,2013-02-03 08:41:00,
2013-02-03 03:51:00,69.0,62.0,30.08,NNE,30,10.0,11.0,79,-99.99,,,-99.99,,2013-02-03 08:51:00,
2013-02-03 04:00:00,69.0,62.0,30.09,North,10,11.0,13.0,78,-99.99,,,-99.99,,2013-02-03 09:00:00,
2013-02-03 04:21:00,69.0,62.0,30.09,North,10,11.0,13.0,78,-99.99,,,-99.99,,2013-02-03 09:21:00,
2013-02-03 04:31:00,69.0,62.0,30.09,North,10,11.0,13.0,78,-99.99,,,-99.99,,2013-02-03 09:31:00,
2013-02-03 04:41:00,69.0,62.0,30.09,North,10,11.0,13.0,78,-99.99,,,-99.99,,2013-02-03 09:41:00,
2013-02-03 04:51:00,69.0,62.0,30.09,North,10,11.0,13.0,78,-99.99,,,-99.99,,2013-02-03 09:51:00,
2013-02-03 05:00:00,69.0,62.0,30.08,North,10,14.0,15.0,77,-99.99,,,-99.99,,2013-02-03 10:00:00,
2013-02-03 05:21:00,69.0,62.0,30.08,North,10,14.0,15.0,77,-99.99,,,-99.99,,2013-02-03 10:21:00,
2013-02-03 05:31:00,69.0,62.0,30.08,North,10,14.0,15.0,77,-99.99,,,-99.99,,2013-02-03 10:31:00,
2013-02-03 05:41:00,69.0,62.0,30.08,North,10,14.0,15.0,77,-99.99,,,-99.99,,2013-02-03 10:41:00,
2013-02-03 05:52:00,69.0,62.0,30.08,North,10,14.0,15.0,77,-99.99,,,-99.99,,2013-02-03 10:52:00,
2013-02-03 06:00:00,68.0,62.0,30.10,North,360,18.0,20.0,80,-99.99,,,-99.99,,2013-02-03 11:00:00,
2013-02-03 06:21:00,68.0,62.0,30.10,North,360,18.0,20.0,80,-99.99,,,-99.99,,2013-02-03 11:21:00,
2013-02-03 06:31:00,68.0,62.0,30.10,North,360,18.0,20.0,80,-99.99,,,-99.99,,2013-02-03 11:31:00,
2013-02-03 06:41:00,68.0,62.0,30.10,North,360,18.0,20.0,80,-99.99,,,-99.99,,2013-02-03 11:41:00,
2013-02-03 06:52:00,68.0,62.0,30.10,North,360,18.0,20.0,80,-99.99,,,-99.99,,2013-02-03 11:52:00,
2013-02-03 07:00:00,68.0,63.0,30.12,North,360,23.0,24.0,83,-99.99,,,-99.99,,2013-02-03 12:00:00,
2013-02-03 07:21:00,68.0,63.0,30.12,North,360,23.0,24.0,83,-99.99,,,-99.99,,2013-02-03 12:21:00,
2013-02-03 07:32:00,68.0,63.0,30.12,North,360,23.0,24.0,83,-99.99,,,-99.99,,2013-02-03 12:32:00,
2013-02-03 07:42:00,68.0,63.0,30.12,North,360,23.0,24.0,83,-99.99,,,-99.99,,2013-02-03 12:42:00,
2013-02-03 07:52:00,68.0,63.0,30.12,North,360,23.0,24.0,83,-99.99,,,-99.99,,2013-02-03 12:52:00,
2013-02-03 08:00:00,67.0,60.0,30.14,North,360,22.0,23.0,79,-99.99,,,-99.99,,2013-02-03 13:00:00,
2013-02-03 08:21:00,67.0,60.0,30.14,North,360,22.0,23.0,79,-99.99,,,-99.99,,2013-02-03 13:21:00,
2013-02-03 08:31:00,67.0,60.0,30.14,North,360,22.0,23.0,79,-99.99,,,-99.99,,2013-02-03 13:31:00,
2013-02-03 08:41:00,67.0,60.0,30.14,North,360,22.0,23.0,79,-99.99,,,-99.99,,2013-02-03 13:41:00,
2013-02-03 08:52:00,67.0,60.0,30.14,North,360,22.0,23.0,79,-99.99,,,-99.99,,2013-02-03 13:52:00,
2013-02-03 09:00:00,66.0,56.0,30.16,North,360,25.0,26.0,71,-99.99,,,-99.99,,2013-02-03 14:00:00,
2013-02-03 09:21:00,66.0,56.0,30.16,North,360,25.0,26.0,71,-99.99,,,-99.99,,2013-02-03 14:21:00,
2013-02-03 09:31:00,66.0,56.0,30.16,North,360,25.0,26.0,71,-99.99,,,-99.99,,2013-02-03 14:31:00,
2013-02-03 09:41:00,66.0,56.0,30.16,North,360,25.0,26.0,71,-99.99,,,-99.99,,2013-02-03 14:41:00,
2013-02-03 09:52:00,66.0,56.0,30.16,North,360,25.0,26.0,71,-99.99,,,-99.99,,2013-02-03 14:52:00,
2013-02-03 10:00:00,65.0,56.0,30.18,North,360,23.0,25.0,72,-99.99,,,-99.99,,2013-02-03 15:00:00,
2013-02-03 10:21:00,65.0,56.0,30.18,North,360,23.0,25.0,72,-99.99,,,-99.99,,2013-02-03 15:21:00,
2013-02-03 10:32:00,65.0,56.0,30.18,North,360,23.0,25.0,72,-99.99,,,-99.99,,2013-02-03 15:32:00,
2013-02-03 10:41:00,65.0,56.0,30.18,North,360,23.0,25.0,72,-99.99,,,-99.99,,2013-02-03 15:41:00,
2013-02-03 10:51:00,65.0,56.0,30.18,North,360,23.0,25.0,72,-99.99,,,-99.99,,2013-02-03 15:51:00,
2013-02-03 11:00:00,66.0,54.0,30.17,NNE,20,20.0,22.0,65,-99.99,,,-99.99,,2013-02-03 16:00:00,
2013-02-03 11:21:00,66.0,54.0,30.17,NNE,20,20.0,22.0,65,-99.99,,,-99.99,,2013-02-03 16:21:00,
2013-02-03 11:31:00,66.0,54.0,30.17,NNE,20,20.0,22.0,65,-99.99,,,-99.99,,2013-02-03 16:31:00,
2013-02-03 11:41:00,66.0,54.0,30.17,NNE,20,20.0,22.0,65,-99.99,,,-99.99,,2013-02-03 16:41:00,
2013-02-03 11:52:00,66.0,54.0,30.17,NNE,20,20.0,22.0,65,-99.99,,,-99.99,,2013-02-03 16:52:00,
2013-02-03 12:00:00,67.0,52.0,30.15,North,10,17.0,20.0,59,-99.99,,,-99.99,,2013-02-03 17:00:00,
2013-02-03 12:21:00,67.0,52.0,30.15,North,10,17.0,20.0,59,-99.99,,,-99.99,,2013-02-03 17:21:00,
2013-02-03 12:31:00,67.0,52.0,30.15,North,10,17.0,20.0,59,-99.99,,,-99.99,,2013-02-03 17:31:00,
2013-02-03 12:41:00,67.0,52.0,30.15,North,10,17.0,20.0,59,-99.99,,,-99.99,,2013-02-03 17:41:00,
2013-02-03 12:52:00,67.0,52.0,30.15,North,10,17.0,20.0,59,-99.99,,,-99.99,,2013-02-03 17:52:00,
2013-02-03 13:00:00,67.0,55.0,30.13,North,360,16.0,17.0,64,-99.99,,,-99.99,,2013-02-03 18:00:00,
2013-02-03 13:22:00,67.0,55.0,30.13,North,360,16.0,17.0,64,-99.99,,,-99.99,,2013-02-03 18:22:00,
2013-02-03 13:31:00,67.0,55.0,30.13,North,360,16.0,17.0,64,-99.99,,,-99.99,,2013-02-03 18:31:00,
2013-02-03 13:41:00,67.0,55.0,30.13,North,360,16.0,17.0,64,-99.99,,,-99.99,,2013-02-03 18:41:00,
2013-02-03 13:51:00,67.0,55.0,30.13,North,360,16.0,17.0,64,-99.99,,,-99.99,,2013-02-03 18:51:00,
2013-02-03 14:00:00,67.0,56.0,30.10,North,360,14.0,15.0,66,-99.99,,,-99.99,,2013-02-03 19:00:00,
2013-02-03 14:21:00,67.0,56.0,30.10,North,360,14.0,15.0,66,-99.99,,,-99.99,,2013-02-03 19:21:00,
2013-02-03 14:31:00,67.0,56.0,30.10,North,360,14.0,15.0,66,-99.99,,,-99.99,,2013-02-03 19:31:00,
2013-02-03 14:41:00,67.0,56.0,30.10,North,360,14.0,15.0,66,-99.99,,,-99.99,,2013-02-03 19:41:00,
2013-02-03 14:51:00,67.0,56.0,30.10,North,360,14.0,15.0,66,-99.99,,,-99.99,,2013-02-03 19:51:00,
2013-02-03 15:00:00,67.0,56.0,30.09,North,350,11.0,13.0,68,-99.99,,,-99.99,,2013-02-03 20:00:00,
2013-02-03 15:21:00,67.0,56.0,30.09,North,350,11.0,13.0,68,-99.99,,,-99.99,,2013-02-03 20:21:00,
2013-02-03 15:31:00,67.0,56.0,30.09,North,350,11.0,13.0,68,-99.99,,,-99.99,,2013-02-03 20:31:00,
2013-02-03 15:41:00,67.0,56.0,30.09,North,350,11.0,13.0,68,-99.99,,,-99.99,,2013-02-03 20:41:00,
2013-02-03 15:51:00,67.0,56.0,30.09,North,350,11.0,13.0,68,-99.99,,,-99.99,,2013-02-03 20:51:00,
2013-02-03 16:00:00,68.0,55.0,30.09,North,360,11.0,13.0,63,-99.99,,,-99.99,,2013-02-03 21:00:00,
2013-02-03 16:21:00,68.0,55.0,30.09,North,360,11.0,13.0,63,-99.99,,,-99.99,,2013-02-03 21:21:00,
2013-02-03 16:31:00,68.0,55.0,30.09,North,360,11.0,13.0,63,-99.99,,,-99.99,,2013-02-03 21:31:00,
2013-02-03 16:42:00,68.0,55.0,30.09,North,360,11.0,13.0,63,-99.99,,,-99.99,,2013-02-03 21:42:00,
2013-02-03 16:51:00,68.0,55.0,30.09,North,360,11.0,13.0,63,-99.99,,,-99.99,,2013-02-03 21:51:00,
2013-02-03 17:00:00,68.0,53.0,30.09,North,350,13.0,13.0,59,-99.99,,,-99.99,,2013-02-03 22:00:00,
2013-02-03 17:21:00,68.0,53.0,30.09,North,350,13.0,13.0,59,-99.99,,,-99.99,,2013-02-03 22:21:00,
2013-02-03 17:31:00,68.0,53.0,30.09,North,350,13.0,13.0,59,-99.99,,,-99.99,,2013-02-03 22:31:00,
2013-02-03 17:41:00,68.0,53.0,30.09,North,350,13.0,13.0,59,-99.99,,,-99.99,,2013-02-03 22:41:00,
2013-02-03 17:51:00,68.0,53.0,30.09,North,350,13.0,13.0,59,-99.99,,,-99.99,,2013-02-03 22:51:00,
2013-02-03 18:00:00,68.0,53.0,30.10,North,350,15.0,16.0,60,-99.99,,,-99.99,,2013-02-03 23:00:00,
2013-02-03 18:21:00,68.0,53.0,30.10,North,350,15.0,16.0,60,-99.99,,,-99.99,,2013-02-03 23:21:00,
2013-02-03 18:32:00,68.0,53.0,30.10,North,350,15.0,16.0,60,-99.99,,,-99.99,,2013-02-03 23:32:00,
2013-02-03 18:41:00,68.0,53.0,30.10,North,350,15.0,16.0,60,-99.99,,,-99.99,,2013-02-03 23:41:00,
2013-02-03 18:52:00,68.0,53.0,30.10,North,350,15.0,16.0,60,-99.99,,,-99.99,,2013-02-03 23:52:00,
2013-02-03 19:00:00,68.0,54.0,30.10,North,350,13.0,14.0,62,-99.99,,,-99.99,,2013-02-04 00:00:00,
2013-02-03 19:21:00,68.0,54.0,30.10,North,350,13.0,14.0,62,-99.99,,,-99.99,,2013-02-04 00:21:00,
2013-02-03 19:31:00,68.0,54.0,30.10,North,350,13.0,14.0,62,-99.99,,,-99.99,,2013-02-04 00:31:00,
2013-02-03 19:41:00,68.0,54.0,30.10,North,350,13.0,14.0,62,-99.99,,,-99.99,,2013-02-04 00:41:00,
2013-02-03 19:51:00,68.0,54.0,30.10,North,350,13.0,14.0,62,-99.99,,,-99.99,,2013-02-04 00:51:00,
2013-02-03 20:00:00,68.0,54.0,30.11,North,10,13.0,14.0,61,-99.99,,,-99.99,,2013-02-04 01:00:00,
2013-02-03 20:21:00,68.0,54.0,30.11,North,10,13.0,14.0,61,-99.99,,,-99.99,,2013-02-04 01:21:00,
2013-02-03 20:31:00,68.0,54.0,30.11,North,10,13.0,14.0,61,-99.99,,,-99.99,,2013-02-04 01:31:00,
2013-02-03 20:41:00,68.0,54.0,30.11,North,10,13.0,14.0,61,-99.99,,,-99.99,,2013-02-04 01:41:00,
2013-02-03 20:51:00,68.0,54.0,30.11,North,10,13.0,14.0,61,-99.99,,,-99.99,,2013-02-04 01:51:00,
2013-02-03 21:00:00,69.0,51.0,30.11,NNE,30,13.0,15.0,51,-99.99,,,-99.99,,2013-02-04 02:00:00,
2013-02-03 21:21:00,69.0,51.0,30.11,NNE,30,13.0,15.0,51,-99.99,,,-99.99,,2013-02-04 02:21:00,
2013-02-03 21:31:00,69.0,51.0,30.11,NNE,30,13.0,15.0,51,-99.99,,,-99.99,,2013-02-04 02:31:00,
2013-02-03 21:41:00,69.0,51.0,30.11,NNE,30,13.0,15.0,51,-99.99,,,-99.99,,2013-02-04 02:41:00,
2013-02-03 21:51:00,69.0,51.0,30.11,NNE,30,13.0,15.0,51,-99.99,,,-99.99,,2013-02-04 02:51:00,
2013-02-03 22:00:00,68.0,49.0,30.11,NNE,30,16.0,17.0,49,-99.99,,,-99.99,,2013-02-04 03:00:00,
2013-02-03 22:21:00,68.0,49.0,30.11,NNE,30,16.0,17.0,49,-99.99,,,-99.99,,2013-02-04 03:21:00,
2013-02-03 22:31:00,68.0,49.0,30.11,NNE,30,16.0,17.0,49,-99.99,,,-99.99,,2013-02-04 03:31:00,
2013-02-03 22:41:00,68.0,49.0,30.11,NNE,30,16.0,17.0,49,-99.99,,,-99.99,,2013-02-04 03:41:00,
2013-02-03 22:51:00,68.0,49.0,30.11,NNE,30,16.0,17.0,49,-99.99,,,-99.99,,2013-02-04 03:51:00,
2013-02-03 23:00:00,68.0,44.0,30.12,NNE,30,15.0,16.0,41,-99.99,,,-99.99,,2013-02-04 04:00:00,
2013-02-03 23:21:00,68.0,44.0,30.12,NNE,30,15.0,16.0,41,-99.99,,,-99.99,,2013-02-04 04:21:00,
2013-02-03 23:31:00,68.0,44.0,30.12,NNE,30,15.0,16.0,41,-99.99,,,-99.99,,2013-02-04 04:31:00,
2013-02-03 23:41:00,68.0,44.0,30.12,NNE,30,15.0,16.0,41,-99.99,,,-99.99,,2013-02-04 04:41:00,
2013-02-03 23:52:00,68.0,44.0,30.12,NNE,30,15.0,16.0,41,-99.99,,,-99.99,,2013-02-04 04:52:00,